createdAt,value
2024-05-09T00:01:15.890Z,60.75
2024-05-09T00:03:45.050Z,60.59
2024-05-09T00:06:14.477Z,61.08
2024-05-09T00:08:41.984Z,60.99
2024-05-09T00:11:22.978Z,60.84
2024-05-09T00:13:50.513Z,61.72
2024-05-09T00:16:39.762Z,60.61
2024-05-09T00:19:07.225Z,61.18
2024-05-09T00:21:34.728Z,61.41
2024-05-09T00:24:02.148Z,62.91
2024-05-09T00:26:32.355Z,61.89
2024-05-09T00:29:04.113Z,61.46
2024-05-09T00:31:32.919Z,61.54
2024-05-09T00:34:01.010Z,61.26
2024-05-09T00:36:32.889Z,60.83
2024-05-09T00:39:14.923Z,62.54
2024-05-09T00:41:42.265Z,63.14
2024-05-09T00:44:12.626Z,63.62
2024-05-09T00:46:53.924Z,63.15
2024-05-09T00:49:33.547Z,63.05
2024-05-09T00:52:03.218Z,62.99
2024-05-09T00:54:31.937Z,63.67
2024-05-09T00:56:59.495Z,62.93
2024-05-09T00:59:34.964Z,63.99
2024-05-09T01:02:12.664Z,64.24
2024-05-09T01:04:40.415Z,64.23
2024-05-09T01:07:11.520Z,65.23
2024-05-09T01:09:41.060Z,64.58
2024-05-09T01:12:09.239Z,64.00
2024-05-09T01:14:39.137Z,64.45
2024-05-09T01:17:13.171Z,64.05
2024-05-09T01:19:44.180Z,63.55
2024-05-09T01:22:22.662Z,64.41
2024-05-09T01:24:53.322Z,63.81
2024-05-09T01:27:31.162Z,62.84
2024-05-09T01:30:00.331Z,63.37
2024-05-09T01:32:28.548Z,63.38
2024-05-09T01:34:57.844Z,64.79
2024-05-09T01:37:30.232Z,62.52
2024-05-09T01:40:18.622Z,62.95
2024-05-09T01:42:54.689Z,62.75
2024-05-09T01:45:23.679Z,63.41
2024-05-09T01:48:20.428Z,63.99
2024-05-09T01:50:49.686Z,63.47
2024-05-09T01:53:19.079Z,62.60
2024-05-09T01:55:52.107Z,62.43
2024-05-09T01:58:30.796Z,61.85
2024-05-09T02:01:21.182Z,64.08
2024-05-09T02:03:49.533Z,64.21
2024-05-09T02:06:44.369Z,63.64
2024-05-09T02:09:12.083Z,63.23
2024-05-09T02:11:47.999Z,62.96
2024-05-09T02:14:21.950Z,62.52
2024-05-09T02:16:50.678Z,63.09
2024-05-09T02:19:22.313Z,62.54
2024-05-09T02:22:02.425Z,62.87
2024-05-09T02:25:05.917Z,62.68
2024-05-09T02:27:34.253Z,63.43
2024-05-09T02:30:02.169Z,63.49
2024-05-09T02:33:01.073Z,62.93
2024-05-09T02:35:29.138Z,63.47
2024-05-09T02:38:05.337Z,63.97
2024-05-09T02:40:41.527Z,65.80
2024-05-09T02:43:15.442Z,65.29
2024-05-09T02:45:53.100Z,64.50
2024-05-09T02:48:29.957Z,64.01
2024-05-09T02:51:02.448Z,65.78
2024-05-09T02:53:39.287Z,65.45
2024-05-09T02:56:07.745Z,65.63
2024-05-09T02:58:39.572Z,64.78
2024-05-09T03:01:08.584Z,64.22
2024-05-09T03:03:36.819Z,64.42
2024-05-09T03:06:13.345Z,65.95
2024-05-09T03:08:46.876Z,65.16
2024-05-09T03:11:26.300Z,64.57
2024-05-09T03:13:55.466Z,63.93
2024-05-09T03:16:24.320Z,63.94
2024-05-09T03:18:53.716Z,65.09
2024-05-09T03:21:26.862Z,64.71
2024-05-09T03:24:11.771Z,64.96
2024-05-09T03:26:41.891Z,64.27
2024-05-09T03:29:09.660Z,64.93
2024-05-09T03:31:50.734Z,63.59
2024-05-09T03:34:19.866Z,64.01
2024-05-09T03:37:04.398Z,65.01
2024-05-09T03:39:54.510Z,64.58
2024-05-09T03:42:25.926Z,64.60
2024-05-09T03:45:00.979Z,62.43
2024-05-09T03:47:38.061Z,64.57
2024-05-09T03:50:36.295Z,64.52
2024-05-09T03:53:05.834Z,64.37
2024-05-09T03:55:44.599Z,64.84
2024-05-09T03:58:14.966Z,64.57
2024-05-09T04:00:46.734Z,63.67
2024-05-09T04:03:15.999Z,64.10
2024-05-09T04:05:45.356Z,64.42
2024-05-09T04:08:16.041Z,64.35
2024-05-09T04:10:47.931Z,63.49
2024-05-09T04:13:16.791Z,63.41
2024-05-09T04:15:48.546Z,62.10
2024-05-09T04:18:19.978Z,62.50
2024-05-09T04:20:49.290Z,63.24
2024-05-09T04:23:18.223Z,62.59
2024-05-09T04:25:47.071Z,62.72
2024-05-09T04:28:15.358Z,62.72
2024-05-09T04:30:44.146Z,63.77
2024-05-09T04:33:13.781Z,63.72
2024-05-09T04:35:44.265Z,63.65
2024-05-09T04:38:14.937Z,63.39
2024-05-09T04:40:43.493Z,62.42
2024-05-09T04:43:24.522Z,62.22
2024-05-09T04:45:56.368Z,62.74
2024-05-09T04:48:35.990Z,62.41
2024-05-09T04:51:08.097Z,64.87
2024-05-09T04:53:36.205Z,63.93
2024-05-09T04:56:05.599Z,64.08
2024-05-09T04:58:34.572Z,63.00
2024-05-09T05:01:04.141Z,64.94
2024-05-09T05:03:48.753Z,63.78
2024-05-09T05:06:17.937Z,63.87
2024-05-09T05:08:52.107Z,63.94
2024-05-09T05:11:19.924Z,64.42
2024-05-09T05:13:48.885Z,63.84
2024-05-09T05:16:19.552Z,63.02
2024-05-09T05:19:07.554Z,62.32
2024-05-09T05:21:39.190Z,62.41
2024-05-09T05:24:08.131Z,62.26
2024-05-09T05:26:36.013Z,61.66
2024-05-09T05:29:04.972Z,61.57
2024-05-09T05:31:33.725Z,60.88
2024-05-09T05:34:02.776Z,63.29
2024-05-09T05:36:31.566Z,61.95
2024-05-09T05:39:11.254Z,60.66
2024-05-09T05:41:40.045Z,61.62
2024-05-09T05:44:07.965Z,61.25
2024-05-09T05:46:37.145Z,61.32
2024-05-09T05:50:23.697Z,60.74
2024-05-09T05:53:00.600Z,60.70
2024-05-09T05:55:34.030Z,60.08
2024-05-09T05:58:03.676Z,61.49
2024-05-09T06:03:04.632Z,61.92
2024-05-09T06:05:32.985Z,61.49
2024-05-09T06:08:02.088Z,61.59
2024-05-09T06:10:40.820Z,61.09
2024-05-09T06:13:11.391Z,61.83
2024-05-09T06:15:52.799Z,60.71
2024-05-09T06:18:21.909Z,60.42
2024-05-09T06:20:50.821Z,62.01
2024-05-09T06:23:20.171Z,61.41
2024-05-09T06:25:53.834Z,61.85
2024-05-09T06:28:23.075Z,61.56
2024-05-09T06:30:51.066Z,59.52
2024-05-09T06:33:20.229Z,61.00
2024-05-09T06:35:59.075Z,59.69
2024-05-09T06:38:29.091Z,60.05
2024-05-09T06:41:02.641Z,58.82
2024-05-09T06:43:35.909Z,59.19
2024-05-09T06:46:08.027Z,58.12
2024-05-09T06:48:48.492Z,58.37
2024-05-09T06:51:17.536Z,58.79
2024-05-09T06:53:49.700Z,58.81
2024-05-09T06:56:26.709Z,60.07
2024-05-09T06:59:04.677Z,59.90
2024-05-09T07:01:38.160Z,60.28
2024-05-09T07:04:19.529Z,59.58
2024-05-09T07:07:16.978Z,58.43
2024-05-09T07:09:45.890Z,57.30
2024-05-09T07:12:14.093Z,58.09
2024-05-09T07:14:44.014Z,56.46
2024-05-09T07:17:13.231Z,57.64
2024-05-09T07:19:44.222Z,56.77
2024-05-09T07:22:12.075Z,57.21
2024-05-09T07:24:46.383Z,55.85
2024-05-09T07:27:21.097Z,55.96
2024-05-09T07:29:54.775Z,55.32
2024-05-09T07:32:27.999Z,54.61
2024-05-09T07:35:01.165Z,55.68
2024-05-09T07:37:32.044Z,56.24
2024-05-09T07:40:01.905Z,55.30
2024-05-09T07:42:37.236Z,55.01
2024-05-09T07:45:24.233Z,55.30
2024-05-09T07:49:44.208Z,54.97
2024-05-09T08:00:31.055Z,54.36
2024-05-09T08:03:01.290Z,55.15
2024-05-09T08:05:32.578Z,54.43
2024-05-09T08:08:01.280Z,54.84
2024-05-09T08:11:19.620Z,54.91
2024-05-09T08:13:47.849Z,54.05
2024-05-09T08:16:17.965Z,52.71
2024-05-09T08:18:51.370Z,53.23
2024-05-09T08:21:34.546Z,54.49
2024-05-09T08:24:34.523Z,54.67
2024-05-09T08:27:09.672Z,54.00
2024-05-09T08:29:41.647Z,53.21
2024-05-09T08:32:12.731Z,54.76
2024-05-09T08:34:56.633Z,54.31
2024-05-09T08:37:29.440Z,54.34
2024-05-09T08:40:04.102Z,52.61
2024-05-09T08:42:35.574Z,53.69
2024-05-09T08:45:02.796Z,54.38
2024-05-09T08:47:32.396Z,53.63
2024-05-09T08:50:05.324Z,53.82
2024-05-09T08:52:37.293Z,52.64
2024-05-09T08:55:06.565Z,51.96
2024-05-09T08:57:38.171Z,51.36
2024-05-09T09:02:53.150Z,50.93
2024-05-09T09:05:32.014Z,49.53
2024-05-09T09:07:59.371Z,51.69
2024-05-09T09:10:31.985Z,52.45
2024-05-09T09:13:04.026Z,51.46
2024-05-09T09:15:33.836Z,51.71
2024-05-09T09:18:13.891Z,52.22
2024-05-09T09:20:43.887Z,52.34
2024-05-09T09:23:11.349Z,49.91
2024-05-09T09:25:41.861Z,49.77
2024-05-09T09:28:09.918Z,51.52
2024-05-09T09:30:42.045Z,49.89
2024-05-09T09:33:10.806Z,51.24
2024-05-09T09:35:41.218Z,51.68
2024-05-09T09:38:17.792Z,51.03
2024-05-09T09:40:49.520Z,50.14
2024-05-09T09:43:22.620Z,49.99
2024-05-09T09:45:53.401Z,49.44
2024-05-09T09:48:23.786Z,51.89
2024-05-09T09:50:56.918Z,52.98
2024-05-09T09:53:36.667Z,51.07
2024-05-09T09:56:08.161Z,49.87
2024-05-09T09:58:39.374Z,49.08
2024-05-09T10:01:07.785Z,48.84
2024-05-09T10:03:36.464Z,50.37
2024-05-09T10:06:06.806Z,50.68
2024-05-09T10:08:37.042Z,50.10
2024-05-09T10:11:06.626Z,51.19
2024-05-09T10:13:36.111Z,50.85
2024-05-09T10:16:08.875Z,51.58
2024-05-09T10:18:41.226Z,50.86
2024-05-09T10:21:20.577Z,50.71
2024-05-09T10:24:05.256Z,50.62
2024-05-09T10:26:35.172Z,49.60
2024-05-09T10:29:16.947Z,49.90
2024-05-09T10:31:49.244Z,51.83
2024-05-09T10:34:24.368Z,51.25
2024-05-09T10:36:54.093Z,51.14
2024-05-09T10:39:23.137Z,48.86
2024-05-09T10:41:51.399Z,50.14
2024-05-09T10:44:21.894Z,49.01
2024-05-09T10:46:50.971Z,50.79
2024-05-09T10:49:20.120Z,48.00
2024-05-09T10:51:48.856Z,48.52
2024-05-09T10:54:17.839Z,48.47
2024-05-09T10:56:46.186Z,47.41
2024-05-09T10:59:17.063Z,46.76
2024-05-09T11:01:46.402Z,47.65
2024-05-09T11:04:14.893Z,48.48
2024-05-09T11:06:43.420Z,47.02
2024-05-09T11:09:12.713Z,46.88
2024-05-09T11:11:42.036Z,47.54
2024-05-09T11:14:14.191Z,47.52
2024-05-09T11:16:42.019Z,46.77
2024-05-09T11:19:14.909Z,46.79
2024-05-09T11:21:43.083Z,46.24
2024-05-09T11:24:12.457Z,45.41
2024-05-09T11:26:44.419Z,46.60
2024-05-09T11:29:15.043Z,47.04
2024-05-09T11:31:49.382Z,45.79
2024-05-09T11:34:17.590Z,46.96
2024-05-09T11:36:46.205Z,47.67
2024-05-09T11:39:14.035Z,47.79
2024-05-09T11:41:43.334Z,47.76
2024-05-09T11:44:12.184Z,46.15
2024-05-09T11:46:40.331Z,46.35
2024-05-09T11:49:10.269Z,45.66
2024-05-09T11:51:38.517Z,44.43
2024-05-09T11:54:07.583Z,45.37
2024-05-09T11:56:36.959Z,46.50
2024-05-09T11:59:05.031Z,46.14
2024-05-09T12:01:33.881Z,45.06
2024-05-09T12:04:03.675Z,41.71
2024-05-09T12:06:33.731Z,42.52
2024-05-09T12:09:03.082Z,42.75
2024-05-09T12:11:32.287Z,43.07
2024-05-09T12:14:05.023Z,42.53
2024-05-09T12:16:33.770Z,42.26
2024-05-09T12:19:07.544Z,42.60
2024-05-09T12:21:48.919Z,39.07
2024-05-09T12:24:18.805Z,42.45
2024-05-09T12:26:48.294Z,39.57
2024-05-09T12:29:18.968Z,41.08
2024-05-09T12:31:47.174Z,41.44
2024-05-09T12:34:16.232Z,41.95
2024-05-09T12:36:44.366Z,41.86
2024-05-09T12:39:13.190Z,40.66
2024-05-09T12:41:42.066Z,41.48
2024-05-09T12:44:10.043Z,40.84
2024-05-09T12:46:39.348Z,40.38
2024-05-09T12:49:07.691Z,40.97
2024-05-09T12:51:35.955Z,41.60
2024-05-09T12:54:04.497Z,41.57
2024-05-09T12:56:35.437Z,43.37
2024-05-09T12:59:05.157Z,43.65
2024-05-09T13:01:33.368Z,43.93
2024-05-09T13:04:01.425Z,44.84
2024-05-09T13:06:32.006Z,44.32
2024-05-09T13:09:02.043Z,44.10
2024-05-09T13:11:33.083Z,41.59
2024-05-09T13:14:05.163Z,41.85
2024-05-09T13:16:33.249Z,41.52
2024-05-09T13:19:01.039Z,42.37
2024-05-09T13:21:28.737Z,40.89
2024-05-09T13:23:56.802Z,39.96
2024-05-09T13:26:28.526Z,39.46
2024-05-09T13:28:56.360Z,40.74
2024-05-09T13:31:24.006Z,42.63
2024-05-09T13:33:54.559Z,39.00
2024-05-09T13:36:22.652Z,39.05
2024-05-09T13:38:50.986Z,39.25
2024-05-09T13:41:18.235Z,40.22
2024-05-09T13:43:45.961Z,40.85
2024-05-09T13:46:13.584Z,38.36
2024-05-09T13:48:41.249Z,41.51
2024-05-09T13:51:08.848Z,37.54
2024-05-09T13:53:36.071Z,39.70
2024-05-09T13:56:04.456Z,38.97
2024-05-09T13:58:32.726Z,38.67
2024-05-09T14:01:00.541Z,38.85
2024-05-09T14:03:28.236Z,37.38
2024-05-09T14:05:57.129Z,38.59
2024-05-09T14:08:24.804Z,39.10
2024-05-09T14:10:52.321Z,38.54
2024-05-09T14:13:20.111Z,38.12
2024-05-09T14:15:49.932Z,39.61
2024-05-09T14:18:18.958Z,36.12
2024-05-09T14:20:48.310Z,37.71
2024-05-09T14:23:18.402Z,35.77
2024-05-09T14:25:51.957Z,35.36
2024-05-09T14:28:22.419Z,35.10
2024-05-09T14:30:51.432Z,36.17
2024-05-09T14:33:20.533Z,34.77
2024-05-09T14:35:50.039Z,34.17
2024-05-09T14:38:18.615Z,33.29
2024-05-09T14:40:46.365Z,33.29
2024-05-09T14:43:15.480Z,34.88
2024-05-09T14:45:45.969Z,34.85
2024-05-09T14:48:15.982Z,34.49
2024-05-09T14:50:44.552Z,34.76
2024-05-09T14:53:14.002Z,34.52
2024-05-09T14:55:43.540Z,36.46
2024-05-09T14:58:13.718Z,33.74
2024-05-09T15:00:46.829Z,36.01
2024-05-09T15:03:22.568Z,34.71
2024-05-09T15:05:51.494Z,33.36
2024-05-09T15:08:20.535Z,32.38
2024-05-09T15:10:49.875Z,31.82
2024-05-09T15:13:21.884Z,34.70
2024-05-09T15:15:52.103Z,33.40
2024-05-09T15:18:21.271Z,31.65
2024-05-09T15:20:51.904Z,33.89
2024-05-09T15:23:20.724Z,34.08
2024-05-09T15:25:49.486Z,34.40
2024-05-09T15:28:18.574Z,34.67
2024-05-09T15:30:48.521Z,35.15
2024-05-09T15:33:17.627Z,36.06
2024-05-09T15:35:47.268Z,37.45
2024-05-09T15:38:17.907Z,36.67
2024-05-09T15:40:47.734Z,38.57
2024-05-09T15:43:16.237Z,39.54
2024-05-09T15:45:47.518Z,39.63
2024-05-09T15:48:16.785Z,38.54
2024-05-09T15:50:44.827Z,39.14
2024-05-09T15:53:13.504Z,40.30
2024-05-09T15:55:45.700Z,41.00
2024-05-09T15:58:24.651Z,41.15
2024-05-09T16:00:53.796Z,40.33
2024-05-09T16:03:23.417Z,40.65
2024-05-09T16:05:52.573Z,40.65
2024-05-09T16:08:22.284Z,41.38
2024-05-09T16:10:51.361Z,40.53
2024-05-09T16:13:21.072Z,40.81
2024-05-09T16:15:51.428Z,39.63
2024-05-09T16:18:21.735Z,40.55
2024-05-09T16:20:51.711Z,40.96
2024-05-09T16:23:19.638Z,40.07
2024-05-09T16:25:48.712Z,39.84
2024-05-09T16:28:19.077Z,40.15
2024-05-09T16:30:48.384Z,40.20
2024-05-09T16:33:16.807Z,42.10
2024-05-09T16:35:45.308Z,40.46
2024-05-09T16:38:14.006Z,40.65
2024-05-09T16:40:42.646Z,40.65
2024-05-09T16:43:13.546Z,40.72
2024-05-09T16:45:44.842Z,40.47
2024-05-09T16:48:14.938Z,40.35
2024-05-09T16:50:43.810Z,40.79
2024-05-09T16:53:13.413Z,41.70
2024-05-09T16:55:42.280Z,41.86
2024-05-09T16:58:11.981Z,40.19
2024-05-09T17:00:43.170Z,40.42
2024-05-09T17:03:17.442Z,39.97
2024-05-09T17:05:47.736Z,39.36
2024-05-09T17:08:18.192Z,39.87
2024-05-09T17:10:47.694Z,40.36
2024-05-09T17:13:17.306Z,41.48
2024-05-09T17:15:45.981Z,41.29
2024-05-09T17:18:14.778Z,41.83
2024-05-09T17:20:42.960Z,41.69
2024-05-09T17:23:10.295Z,41.02
2024-05-09T17:25:37.620Z,41.78
2024-05-09T17:28:06.496Z,39.60
2024-05-09T17:30:38.158Z,39.32
2024-05-09T17:33:09.579Z,40.07
2024-05-09T17:35:38.413Z,40.72
2024-05-09T17:38:06.911Z,40.60
2024-05-09T17:40:37.258Z,39.43
2024-05-09T17:43:09.036Z,40.64
2024-05-09T17:45:42.090Z,42.18
2024-05-09T17:48:11.903Z,41.39
2024-05-09T17:50:41.228Z,42.58
2024-05-09T17:53:09.375Z,43.44
2024-05-09T17:55:37.002Z,41.91
2024-05-09T17:58:06.102Z,43.31
2024-05-09T18:00:38.936Z,45.36
2024-05-09T18:03:09.955Z,43.21
2024-05-09T18:05:38.054Z,42.71
2024-05-09T18:08:07.200Z,42.02
2024-05-09T18:10:38.126Z,43.78
2024-05-09T18:13:11.871Z,42.74
2024-05-09T18:15:40.358Z,43.61
2024-05-09T18:18:08.765Z,44.22
2024-05-09T18:20:42.499Z,45.08
2024-05-09T18:23:18.019Z,44.32
2024-05-09T18:25:48.457Z,42.75
2024-05-09T18:28:17.554Z,45.41
2024-05-09T18:30:46.498Z,43.94
2024-05-09T18:33:15.275Z,44.97
2024-05-09T18:35:45.367Z,44.64
2024-05-09T18:38:13.794Z,44.96
2024-05-09T18:40:44.890Z,45.03
2024-05-09T18:43:28.752Z,45.28
2024-05-09T18:46:04.838Z,45.82
2024-05-09T18:48:34.964Z,45.88
2024-05-09T18:51:03.195Z,46.26
2024-05-09T18:53:31.563Z,45.35
2024-05-09T18:56:00.619Z,45.78
2024-05-09T18:58:31.237Z,45.86
2024-05-09T19:01:01.619Z,46.57
2024-05-09T19:03:30.202Z,46.18
2024-05-09T19:05:58.244Z,46.55
2024-05-09T19:08:28.484Z,45.23
2024-05-09T19:11:00.372Z,46.01
2024-05-09T19:13:30.545Z,46.97
2024-05-09T19:15:58.593Z,46.34
2024-05-09T19:18:30.506Z,46.41
2024-05-09T19:20:59.449Z,46.95
2024-05-09T19:23:27.271Z,46.26
2024-05-09T19:25:55.045Z,47.33
2024-05-09T19:28:23.271Z,48.12
2024-05-09T19:30:51.524Z,47.50
2024-05-09T19:33:20.458Z,47.24
2024-05-09T19:35:50.239Z,48.04
2024-05-09T19:38:18.450Z,48.11
2024-05-09T19:40:46.758Z,48.29
2024-05-09T19:43:14.722Z,47.94
2024-05-09T19:45:44.053Z,47.36
2024-05-09T19:48:17.323Z,47.54
2024-05-09T19:50:46.319Z,47.02
2024-05-09T19:53:14.596Z,48.36
2024-05-09T19:55:43.300Z,48.14
2024-05-09T19:58:13.971Z,48.35
2024-05-09T20:00:43.590Z,48.64
2024-05-09T20:03:16.209Z,49.00
2024-05-09T20:05:46.649Z,49.22
2024-05-09T20:08:16.513Z,49.54
2024-05-09T20:10:44.622Z,49.30
2024-05-09T20:13:13.477Z,49.39
2024-05-09T20:15:41.321Z,50.14
2024-05-09T20:18:12.562Z,49.31
2024-05-09T20:20:43.894Z,50.97
2024-05-09T20:23:14.191Z,50.55
2024-05-09T20:25:43.122Z,50.33
2024-05-09T20:28:12.405Z,50.60
2024-05-09T20:30:40.798Z,50.56
2024-05-09T20:33:10.019Z,50.29
2024-05-09T20:35:38.611Z,50.41
2024-05-09T20:38:06.411Z,51.52
2024-05-09T20:40:38.328Z,51.24
2024-05-09T20:43:10.726Z,51.53
2024-05-09T20:45:40.247Z,50.03
2024-05-09T20:48:09.434Z,50.90
2024-05-09T20:50:40.861Z,51.21
2024-05-09T20:53:12.187Z,50.97
2024-05-09T20:55:40.846Z,51.41
2024-05-09T20:58:09.838Z,52.03
2024-05-09T21:00:42.647Z,51.03
2024-05-09T21:03:16.153Z,52.58
2024-05-09T21:05:45.324Z,51.28
2024-05-09T21:08:14.772Z,51.10
2024-05-09T21:10:42.672Z,50.40
2024-05-09T21:13:11.259Z,51.27
2024-05-09T21:15:40.129Z,51.24
2024-05-09T21:18:08.540Z,52.00
2024-05-09T21:20:39.293Z,51.37
2024-05-09T21:23:08.392Z,52.06
2024-05-09T21:25:37.262Z,51.43
2024-05-09T21:28:06.458Z,50.94
2024-05-09T21:30:41.304Z,52.49
2024-05-09T21:33:14.107Z,51.72
2024-05-09T21:35:44.430Z,51.55
2024-05-09T21:38:14.556Z,52.85
2024-05-09T21:40:46.280Z,52.51
2024-05-09T21:43:14.420Z,53.71
2024-05-09T21:45:43.589Z,53.73
2024-05-09T21:48:13.298Z,53.71
2024-05-09T21:50:42.886Z,53.26
2024-05-09T21:53:13.377Z,53.48
2024-05-09T21:55:46.170Z,53.65
2024-05-09T21:58:14.785Z,55.98
2024-05-09T22:00:44.114Z,54.44
2024-05-09T22:03:14.625Z,53.72
2024-05-09T22:05:42.697Z,54.46
2024-05-09T22:08:11.594Z,55.39
2024-05-09T22:10:40.538Z,55.81
2024-05-09T22:13:09.326Z,55.79
2024-05-09T22:15:40.378Z,55.92
2024-05-09T22:18:10.843Z,56.21
2024-05-09T22:20:40.602Z,55.88
2024-05-09T22:23:08.866Z,56.18
2024-05-09T22:25:38.030Z,55.96
2024-05-09T22:28:07.809Z,56.69
2024-05-09T22:30:39.062Z,56.60
2024-05-09T22:33:10.937Z,55.98
2024-05-09T22:35:44.026Z,56.22
2024-05-09T22:38:14.683Z,56.55
2024-05-09T22:40:48.334Z,57.11
2024-05-09T22:43:23.473Z,57.05
2024-05-09T22:45:54.395Z,55.62
2024-05-09T22:48:27.188Z,57.09
2024-05-09T22:50:56.020Z,58.90
2024-05-09T22:53:25.745Z,57.49
2024-05-09T22:55:54.889Z,57.23
2024-05-09T22:58:24.104Z,57.94
2024-05-09T23:00:53.602Z,57.08
2024-05-09T23:03:23.175Z,57.06
2024-05-09T23:05:51.168Z,57.37
2024-05-09T23:08:19.066Z,57.23
2024-05-09T23:10:48.365Z,57.13
2024-05-09T23:13:16.949Z,58.37
2024-05-09T23:15:44.605Z,58.38
2024-05-09T23:18:14.783Z,58.35
2024-05-09T23:20:42.324Z,57.31
2024-05-09T23:23:11.861Z,58.14
2024-05-09T23:25:41.339Z,58.36
2024-05-09T23:28:09.389Z,57.36
2024-05-09T23:30:39.986Z,57.97
2024-05-09T23:33:11.271Z,58.49
2024-05-09T23:35:41.036Z,59.01
2024-05-09T23:38:08.428Z,59.08
2024-05-09T23:40:39.593Z,59.03
2024-05-09T23:43:10.178Z,59.78
2024-05-09T23:45:38.106Z,59.07
2024-05-09T23:48:06.980Z,59.72
2024-05-09T23:50:37.623Z,60.21
2024-05-09T23:53:08.301Z,60.70
2024-05-09T23:55:37.128Z,59.37
2024-05-09T23:58:05.657Z,59.33
